x

Gulf Of Maine - 78 Nm East Of Portsmouth, Nh (44005) Wave Buoy

5:50 - Sun 1st Mar 2015 All times are EST. -5 hours from GMT.

  • Sig Wave height 2.0ft
  • Peak Period 10s
  • Average Period 5s
  • Wind
    7mph, 9mph gusts
  • Sea Temp 40°f
  • Aire Temp 30°f
  • Sea Pressure 1037.2mb
  • Gulf Of Maine - 78 Nm East Of Portsmouth, Nh
  • Gulf Of Maine - 78 Nm East Of Portsmouth, Nh

More Historic Weather Station data

Upgrade to MSW Pro to gain access to the past 30 days of data for over 8000 Wavebouys and Weather Stations around the globe.

Join Pro

Comparision Forecast

View Surf forecast
   
dom 03/01 5:50 2ft 10s 5s 7 9 mph 1037.2mb 40f 30f
4:50 2.5ft 10s 4s 2 9 mph 1037.6mb 40f 30f
3:50 2.5ft 10s 5s 7 11 mph 1037.8mb 40f 31f
2:50 2.5ft 9s 5s 9 13 mph 1037.4mb 39f 31f
1:50 2.5ft 8s 4s 11 16 mph 1038.1mb 39f 32f
12:50 3ft 9s 5s 11 16 mph 1037.7mb 39f 32f
sáb 02/28 11:50 3.5ft 9s 5s 13 18 mph 1037.5mb 39f 32f
10:50 3ft 9s 5s 11 16 mph 1037.7mb 39f 32f
9:50  -   -   -  11
mph
- - -
8:50 2.5ft 10s 5s 11 16 mph 1038mb 39f 31f
7:50 2.5ft 10s 5s 11 16 mph 1037.8mb 39f 29f
6:50 2.5ft 11s 5s 9 13 mph 1037.9mb 39f 28f
5:50 2.5ft 11s 5s 13 18 mph 1037.6mb 39f 27f
4:50 2.5ft 10s 6s 13 18 mph 1037.6mb 39f 28f
3:50 2.5ft 9s 6s 7 11 mph 1037.9mb 39f 26f
2:50 3.5ft 10s 6s 7 9 mph 1038.1mb 40f 26f
1:50 3.5ft 10s 6s 4 9 mph 1038.3mb 40f 25f
12:50 3.5ft 11s 6s 2 7 mph 1038.8mb 40f 24f
11:50 4ft 10s 7s 2 7 mph 1039.4mb 39f 23f
10:50 4.5ft 10s 7s  -  4 mph 1039.5mb 39f 23f
9:50 4ft 9s 6s 2 9 mph 1039mb 39f 23f
8:50 4.5ft 9s 6s 2 9 mph 1038.8mb 39f 23f
6:50 5ft 11s 5s 9 13 mph 1036.9mb 39f 22f
5:50 5ft 5s 5s 13 18 mph 1036.2mb 39f 22f
4:50 5ft 10s 5s 16 22 mph 1035.3mb 39f 23f
3:50 5ft 10s 6s 16 22 mph 1034.1mb 39f 24f
2:50 5.5ft 11s 5s 13 20 mph 1033.6mb 39f 24f
1:50  -   -   -  13
mph
- - 25f
12:50 5ft 10s 7s 16 20 mph 1032.2mb 39f 26f
vie 02/27 11:50 5ft 11s 7s 11 18 mph 1031.2mb 39f 27f
10:50  -   -   -  13 18 mph 1030.6mb 39f 27f
9:50 5.5ft 11s 8s 9 16 mph 1030.1mb 39f 27f
8:50 5ft 10s 8s 9 13 mph 1029.7mb 39f 26f
7:50 6ft 11s 8s 11 16 mph 1029.2mb 39f 25f
6:50 5ft 10s 8s 11 16 mph 1028.8mb 39f 24f
5:50 5ft 11s 8s 9 13 mph 1027.9mb 39f 23f
4:50 4ft 11s 7s 11 16 mph 1027.3mb 39f 23f
3:50 5ft 12s 8s 7 13 mph 1026.8mb 39f 22f
2:50  -   -   -  7
mph
1026.6mb 39f 21f
1:50 5ft 13s 8s 2 7 mph 1026.5mb 39f 20f
12:50 5ft 12s 7s 7 11 mph 1026.2mb 39f 19f
11:50 6ft 11s 8s 7 13 mph 1026.1mb 39f 19f
10:50 5.5ft 11s 7s 9 11 mph 1026.2mb 39f 19f
9:50 5ft 10s 7s 11 16 mph 1025.9mb 39f 19f
8:50 5ft 10s 6s 13 18 mph 1025.5mb 39f 19f
7:50 4.5ft 10s 6s 9 16 mph 1024.9mb 39f 19f
6:50 4.5ft 10s 6s 11 16 mph 1023.8mb 39f 19f
5:50 4.5ft 10s 5s 11 18 mph 1022.7mb 39f 19f
4:50 3.5ft 11s 5s 11 16 mph 1021.5mb 39f 20f
3:50 3.5ft 11s 5s 11 16 mph 1020.2mb 39f 21f
2:50 4ft 11s 5s 13 18 mph 1019.2mb 39f 22f
1:50 3.5ft 11s 5s 13 18 mph 1019.2mb 40f 22f
12:50 3.5ft 11s 5s 16 18 mph 1018.6mb 40f 22f
jue 02/26 11:50 4ft 10s 5s 16 18 mph 1018.5mb 40f 22f
10:50 4ft 10s 5s 16 20 mph 1018.1mb 40f 22f
9:50 4ft 10s 5s 16 18 mph 1017.4mb 40f 22f
8:50 4.5ft 9s 5s 16 22 mph 1016.4mb 40f 22f
7:50 4ft 10s 5s 16 22 mph 1015.6mb 40f 22f
6:50 4.5ft 10s 5s 18 22 mph 1015.2mb 40f 21f
5:50 4.5ft 10s 5s 18 22 mph 1014.7mb 40f 21f
4:50 4.5ft 10s 5s 18 22 mph 1014.6mb 40f 20f
3:50 4ft 5s 4s 18 22 mph 1014.2mb 40f 20f
2:50 4.5ft 5s 5s 18 22 mph 1014.5mb 40f 20f
1:50 4ft 11s 5s 16 22 mph 1015.4mb 40f 19f
12:50 4.5ft 5s 5s 16 20 mph 1016.1mb 40f 19f
11:50 4.5ft 5s 5s 18 22 mph 1017mb 40f 20f
10:50 4.5ft 5s 5s 16 22 mph 1018mb 40f 20f
9:50 4.5ft 5s 5s 18 22 mph 1018.2mb 40f 21f
8:50 5ft 5s 5s 18 22 mph 1018.6mb 40f 21f
7:50 4.5ft 5s 5s 18 25 mph 1018.3mb 40f 21f
6:50 4.5ft 5s 4s 18 25 mph 1017.4mb 40f 22f
5:50 4.5ft 5s 5s 18 22 mph 1016.6mb 40f 23f
4:50 4.5ft 6s 5s 18 22 mph 1016mb 40f 24f
3:50 4.5ft 5s 5s 16 20 mph 1015.5mb 40f 26f
2:50 5ft 6s 5s 16 22 mph 1014.8mb 40f 27f
1:50 5ft 10s 5s 13 20 mph 1014.7mb 40f 29f
mié 02/25 11:50 6ft 6s 5s 18 22 mph 1012.9mb 40f 32f
10:50 6ft 6s 5s 20 25 mph 1012.2mb 40f 32f
8:50 6ft 6s 5s 22 27 mph 1010.3mb 40f 34f
7:50 5.5ft 6s 5s 22 27 mph 1008.3mb 40f 34f
6:50 6ft 6s 5s 20 29 mph 1007.5mb 40f 35f
5:50 5.5ft 5s 5s 22 27 mph 1006.5mb 40f 34f
4:50 5ft 5s 4s 22 27 mph 1005.4mb 40f 33f
3:50 5ft 5s 4s 22 29 mph 1004.4mb 40f 33f
2:50 5ft 5s 4s 25 31 mph 1003.2mb 40f 32f
1:50 4.5ft 5s 4s 22 27 mph 1002.8mb 40f 29f
12:50 4.5ft 5s 4s 27 31 mph 1002.5mb 40f 28f
11:50 4.5ft 4s 4s 22 29 mph 1002.9mb 40f 28f